Time;durP1;ratioP1;P1;durP2;ratioP2;P2;SDS_P1;SDS_P2;PMS_P1;PMS_P2;Temp;Humidity;BMP_temperature;BMP_pressure;BME280_temperature;BME280_humidity;BME280_pressure;Samples;Min_cycle;Max_cycle;Signal;HPM_P1;HPM_P2
2021/04/22 00:00:11;;;;;;;10.98;2.62;;;;;;;2.61;63.34;98924.24;1795824;78;21642;-68
2021/04/22 00:02:40;;;;;;;10.13;2.47;;;;;;;2.63;63.52;98935.78;1799008;78;21122;-68
2021/04/22 00:05:27;;;;;;;10.70;2.08;;;;;;;2.62;63.48;98927.66;1796261;78;21182;-68
2021/04/22 00:07:56;;;;;;;12.60;2.60;;;;;;;2.60;63.54;98930.72;1796886;77;21056;-68
2021/04/22 00:10:31;;;;;;;10.15;2.33;;;;;;;2.59;63.54;98923.44;1797967;78;21085;-68
2021/04/22 00:13:07;;;;;;;9.03;2.42;;;;;;;2.63;63.74;98921.61;1823253;76;23072;-67
2021/04/22 00:15:35;;;;;;;10.15;2.83;;;;;;;2.58;63.72;98926.07;1799178;77;20985;-68
2021/04/22 00:18:06;;;;;;;16.23;3.05;;;;;;;2.56;64.07;98924.81;1800191;78;21197;-67
2021/04/22 00:23:15;;;;;;;16.60;3.30;;;;;;;2.55;63.89;98910.66;1832282;77;22472;-67
2021/04/22 00:25:42;;;;;;;15.38;2.40;;;;;;;2.51;63.91;98916.80;1801867;79;21079;-68
2021/04/22 00:28:11;;;;;;;21.62;2.98;;;;;;;2.51;63.92;98916.80;1808363;77;21127;-68
2021/04/22 00:30:40;;;;;;;10.13;2.85;;;;;;;2.50;63.89;98921.56;1803092;79;21551;-68
2021/04/22 00:33:10;;;;;;;15.70;2.87;;;;;;;2.46;63.93;98916.50;1801495;79;21646;-68
2021/04/22 00:35:37;;;;;;;20.40;3.35;;;;;;;2.45;64.03;98916.08;1805781;77;20994;-68
2021/04/22 00:38:05;;;;;;;18.98;3.72;;;;;;;2.46;64.02;98904.03;1779595;79;20999;-68
2021/04/22 00:40:33;;;;;;;19.75;2.60;;;;;;;2.45;64.13;98910.92;1805826;79;21360;-68
2021/04/22 00:43:07;;;;;;;15.63;2.98;;;;;;;2.45;64.13;98908.34;1805674;79;21034;-68
2021/04/22 00:45:37;;;;;;;16.12;2.98;;;;;;;2.44;64.24;98906.67;1742125;80;21024;-68
2021/04/22 00:48:06;;;;;;;20.77;3.35;;;;;;;2.39;64.16;98908.52;1734860;81;21203;-69
2021/04/22 00:50:36;;;;;;;18.05;2.70;;;;;;;2.36;64.27;98903.45;1735512;81;21127;-69
2021/04/22 00:53:04;;;;;;;16.75;3.20;;;;;;;2.34;64.31;98904.37;1730988;81;21206;-68
2021/04/22 00:55:32;;;;;;;20.92;3.33;;;;;;;2.31;64.32;98904.02;1731477;81;21162;-69
2021/04/22 00:58:00;;;;;;;11.28;2.52;;;;;;;2.29;64.36;98910.09;1744137;80;21164;-68
2021/04/22 01:00:37;;;;;;;14.43;2.77;;;;;;;2.27;64.55;98914.02;1735974;80;21200;-68
2021/04/22 01:03:09;;;;;;;24.72;3.67;;;;;;;2.26;64.50;98908.89;1731431;81;21256;-66
2021/04/22 01:05:50;;;;;;;11.45;2.20;;;;;;;2.24;64.42;98911.48;1733569;81;22190;-66
2021/04/22 01:08:17;;;;;;;14.35;2.95;;;;;;;2.24;64.60;98908.91;1733841;80;21191;-67
2021/04/22 01:10:44;;;;;;;19.45;3.30;;;;;;;2.25;64.61;98910.63;1733878;81;21179;-67
2021/04/22 01:13:11;;;;;;;14.90;3.08;;;;;;;2.23;64.65;98904.66;1731686;81;21037;-68
2021/04/22 01:15:39;;;;;;;14.75;2.75;;;;;;;2.20;64.79;98898.30;1740966;81;21191;-68
2021/04/22 01:18:08;;;;;;;20.90;3.72;;;;;;;2.18;64.65;98902.20;1747129;81;22174;-68
2021/04/22 01:20:40;;;;;;;21.25;2.98;;;;;;;2.16;64.79;98898.00;1738509;82;21195;-67
2021/04/22 01:23:15;;;;;;;11.35;2.65;;;;;;;2.15;64.91;98893.71;1797634;78;22416;-67
2021/04/22 01:25:46;;;;;;;19.70;3.62;;;;;;;2.10;64.94;98903.28;1767079;80;21633;-67
2021/04/22 01:28:15;;;;;;;17.15;3.25;;;;;;;2.06;64.88;98893.96;1770219;80;21193;-68
2021/04/22 01:30:50;;;;;;;15.53;3.80;;;;;;;2.04;64.96;98890.57;1766383;80;21050;-68
2021/04/22 01:33:27;;;;;;;19.77;2.90;;;;;;;2.01;65.01;98887.19;1767963;80;21052;-68
2021/04/22 01:35:57;;;;;;;18.87;3.85;;;;;;;2.00;65.14;98884.66;1768040;80;21196;-68
2021/04/22 01:38:26;;;;;;;23.52;2.98;;;;;;;1.97;65.04;98880.44;1764888;80;21151;-69
2021/04/22 01:40:55;;;;;;;13.18;2.77;;;;;;;1.97;65.09;98881.73;1765054;80;21205;-69
2021/04/22 01:43:22;;;;;;;22.22;3.72;;;;;;;1.95;65.23;98884.77;1768226;78;21245;-69
2021/04/22 01:45:49;;;;;;;18.27;4.00;;;;;;;1.95;65.28;98884.77;1766453;80;21097;-69
2021/04/22 01:48:17;;;;;;;21.75;3.47;;;;;;;1.93;65.27;98880.55;1766156;80;21223;-69
2021/04/22 01:50:44;;;;;;;17.12;2.87;;;;;;;1.93;65.42;98883.12;1770919;78;21143;-69
2021/04/22 01:53:12;;;;;;;25.90;3.17;;;;;;;1.91;65.37;98879.31;1765837;80;21263;-68
2021/04/22 01:55:49;;;;;;;20.10;3.55;;;;;;;1.89;65.37;98871.22;1769912;80;21246;-69
2021/04/22 01:58:21;;;;;;;19.23;2.62;;;;;;;1.88;65.44;98878.56;1772878;80;21618;-69
2021/04/22 02:00:52;;;;;;;14.38;2.47;;;;;;;1.88;65.52;98871.67;1765268;80;22413;-69
2021/04/22 02:03:22;;;;;;;19.80;3.58;;;;;;;1.88;65.66;98876.82;1764766;80;21204;-69
2021/04/22 02:05:49;;;;;;;15.78;2.83;;;;;;;1.91;65.60;98880.60;1765221;80;22174;-69
2021/04/22 02:08:17;;;;;;;22.00;3.20;;;;;;;1.95;65.72;98880.91;1770815;80;21174;-69
2021/04/22 02:10:45;;;;;;;15.25;3.40;;;;;;;2.00;65.64;98877.78;1766691;80;21134;-69
2021/04/22 02:13:15;;;;;;;19.80;3.35;;;;;;;2.09;65.82;98868.97;1713916;83;21155;-69
2021/04/22 02:15:44;;;;;;;20.00;2.98;;;;;;;2.16;65.73;98870.51;1709610;83;21199;-69
2021/04/22 02:18:11;;;;;;;21.90;3.62;;;;;;;2.23;65.79;98873.75;1708432;81;21278;-68
2021/04/22 02:20:38;;;;;;;16.20;3.00;;;;;;;2.27;65.77;98872.80;1730421;81;21042;-69
2021/04/22 02:23:09;;;;;;;21.68;4.58;;;;;;;2.28;65.76;98865.91;1737269;81;21721;-69
2021/04/22 02:25:36;;;;;;;13.05;3.25;;;;;;;2.25;65.73;98869.41;1736495;81;21219;-69
2021/04/22 02:28:03;;;;;;;14.47;3.17;;;;;;;2.23;65.89;98876.33;1731566;81;21292;-69
2021/04/22 02:30:34;;;;;;;14.10;3.62;;;;;;;2.20;65.95;98866.11;1738442;81;22783;-69
2021/04/22 02:33:05;;;;;;;21.65;4.42;;;;;;;2.17;65.76;98855.89;1732999;81;21179;-69
2021/04/22 02:35:36;;;;;;;17.85;3.10;;;;;;;2.15;65.88;98849.93;1684721;83;21535;-69
2021/04/22 02:38:07;;;;;;;21.75;3.22;;;;;;;2.13;65.92;98855.56;1703027;83;21203;-68
2021/04/22 02:40:37;;;;;;;26.50;3.50;;;;;;;2.11;66.03;98850.91;1733989;81;21128;-69
2021/04/22 02:43:09;;;;;;;17.65;3.70;;;;;;;2.11;66.14;98845.77;1733946;81;22363;-68
2021/04/22 02:45:43;;;;;;;27.82;4.03;;;;;;;2.13;66.19;98849.12;1735754;81;21068;-69
2021/04/22 02:48:11;;;;;;;19.20;3.58;;;;;;;2.15;66.17;98848.64;1738894;80;21298;-69
2021/04/22 02:50:43;;;;;;;16.42;3.27;;;;;;;2.19;66.21;98846.41;1737591;80;21179;-69
2021/04/22 02:53:10;;;;;;;20.45;3.52;;;;;;;2.21;66.31;98851.05;1733061;80;21617;-69
2021/04/22 02:55:38;;;;;;;15.98;3.33;;;;;;;2.19;66.46;98848.98;1731743;81;21326;-69
2021/04/22 02:58:05;;;;;;;19.07;3.47;;;;;;;2.17;66.47;98848.17;1737647;81;26682;-69
2021/04/22 03:00:32;;;;;;;16.17;3.25;;;;;;;2.16;66.48;98838.77;1720013;82;21191;-69
2021/04/22 03:02:59;;;;;;;19.20;3.70;;;;;;;2.17;66.43;98846.43;1700658;83;21597;-68
2021/04/22 03:05:26;;;;;;;18.67;3.65;;;;;;;2.22;66.64;98841.16;1720236;82;21202;-68
2021/04/22 03:07:53;;;;;;;16.87;3.75;;;;;;;2.28;66.68;98846.14;1714094;81;22176;-69
2021/04/22 03:10:23;;;;;;;16.25;3.08;;;;;;;2.32;66.73;98850.31;1716127;82;21259;-69
2021/04/22 03:12:50;;;;;;;28.60;4.08;;;;;;;2.39;66.74;98844.11;1720201;82;21171;-68
2021/04/22 03:15:18;;;;;;;10.43;3.08;;;;;;;2.44;66.66;98839.67;1721368;82;21157;-69
2021/04/22 03:17:46;;;;;;;13.03;2.95;;;;;;;2.51;66.69;98829.19;1716721;82;21251;-69
2021/04/22 03:20:14;;;;;;;19.10;3.90;;;;;;;2.56;66.89;98833.77;1718772;82;22310;-69
2021/04/22 03:22:42;;;;;;;19.23;3.50;;;;;;;2.60;66.90;98837.48;1720918;82;21155;-69
2021/04/22 03:25:12;;;;;;;17.60;3.87;;;;;;;2.67;66.92;98827.86;1712872;82;21168;-69
2021/04/22 03:27:40;;;;;;;28.32;3.92;;;;;;;2.71;67.00;98816.55;1715517;82;21183;-69
2021/04/22 03:30:11;;;;;;;11.10;3.00;;;;;;;2.73;66.94;98817.81;1715841;81;22306;-69
2021/04/22 03:32:39;;;;;;;18.90;4.08;;;;;;;2.74;67.14;98816.45;1714245;82;21217;-69
2021/04/22 03:35:08;;;;;;;16.42;3.83;;;;;;;2.74;66.98;98811.30;1720661;82;21260;-68
2021/04/22 03:37:35;;;;;;;25.82;4.33;;;;;;;2.75;67.06;98813.02;1718062;82;21080;-69
2021/04/22 03:40:05;;;;;;;19.42;4.17;;;;;;;2.77;67.09;98813.78;1715226;82;21103;-69
2021/04/22 03:42:32;;;;;;;18.87;4.78;;;;;;;2.80;67.12;98798.26;1713288;82;21167;-69
2021/04/22 03:44:59;;;;;;;13.80;3.92;;;;;;;2.88;67.28;98805.28;1715776;82;21253;-70
2021/04/22 03:47:28;;;;;;;19.37;5.53;;;;;;;3.02;67.32;98802.73;1716512;82;21168;-69
2021/04/22 03:49:55;;;;;;;31.12;5.35;;;;;;;3.27;67.39;98816.53;1713137;82;21167;-70
2021/04/22 03:52:22;;;;;;;26.20;4.78;;;;;;;3.55;67.23;98809.19;1711942;82;21276;-70
2021/04/22 03:54:49;;;;;;;15.78;4.40;;;;;;;3.83;67.21;98807.80;1709796;82;21186;-69
2021/04/22 03:57:16;;;;;;;21.05;6.28;;;;;;;4.05;67.09;98813.06;1711639;82;21213;-69
2021/04/22 03:59:42;;;;;;;22.40;4.78;;;;;;;4.36;67.05;98806.80;1713716;82;21195;-69
2021/04/22 04:02:09;;;;;;;20.60;4.75;;;;;;;4.80;66.97;98808.19;1708564;82;21173;-69
2021/04/22 04:04:36;;;;;;;30.23;6.22;;;;;;;5.29;66.89;98806.23;1714810;82;21110;-69
2021/04/22 04:07:03;;;;;;;30.95;4.70;;;;;;;5.77;66.49;98805.11;1713276;82;21172;-70
2021/04/22 04:09:30;;;;;;;24.80;5.08;;;;;;;6.21;66.04;98803.69;1713055;82;21211;-70
2021/04/22 04:11:57;;;;;;;24.65;4.92;;;;;;;6.74;65.86;98797.83;1712206;82;21501;-70
2021/04/22 04:14:24;;;;;;;14.28;4.33;;;;;;;6.74;65.86;98797.83;1718815;82;21266;-70
2021/04/22 04:16:51;;;;;;;16.23;3.40;;;;;;;6.98;65.62;98788.53;1714163;82;21178;-70
2021/04/22 04:19:18;;;;;;;16.25;3.45;;;;;;;6.87;65.30;98808.03;1719643;82;22363;-70
2021/04/22 04:21:45;;;;;;;14.87;3.62;;;;;;;6.49;65.12;98809.33;1714536;82;21506;-70
2021/04/22 04:24:12;;;;;;;18.02;5.22;;;;;;;6.04;65.29;98813.04;1705451;82;21334;-70
2021/04/22 04:26:39;;;;;;;24.55;4.90;;;;;;;5.58;65.46;98814.97;1716528;83;21277;-69
2021/04/22 04:29:06;;;;;;;31.82;4.78;;;;;;;5.20;65.68;98815.67;1718859;83;21631;-70
2021/04/22 04:31:33;;;;;;;29.72;4.28;;;;;;;4.90;65.85;98813.38;1711563;83;21168;-70
2021/04/22 04:34:03;;;;;;;22.70;4.37;;;;;;;4.66;65.95;98817.30;1701270;83;22175;-69
2021/04/22 04:36:31;;;;;;;31.70;5.45;;;;;;;4.49;66.19;98808.05;1700974;83;21216;-68
2021/04/22 04:38:58;;;;;;;23.35;4.08;;;;;;;4.42;66.24;98810.45;1713716;81;23042;-68
2021/04/22 04:41:26;;;;;;;23.38;4.50;;;;;;;4.41;66.33;98822.98;1690004;83;21052;-68
2021/04/22 04:43:53;;;;;;;18.45;5.30;;;;;;;4.42;66.31;98818.20;1692252;82;21065;-68
2021/04/22 04:46:20;;;;;;;25.32;4.20;;;;;;;4.43;66.37;98822.49;1697401;83;22761;-68
2021/04/22 04:48:47;;;;;;;30.32;4.80;;;;;;;4.56;66.48;98818.53;1710636;82;21162;-68
2021/04/22 04:51:14;;;;;;;12.30;3.37;;;;;;;4.68;66.35;98814.22;1702425;82;21123;-68
2021/04/22 04:53:41;;;;;;;23.57;4.03;;;;;;;4.80;66.30;98810.77;1703446;83;21634;-68
2021/04/22 04:56:08;;;;;;;12.13;3.77;;;;;;;4.91;66.32;98808.61;1683064;84;21244;-68
2021/04/22 04:58:36;;;;;;;39.45;5.50;;;;;;;5.01;66.20;98798.28;1691591;83;21270;-68
2021/04/22 05:01:03;;;;;;;25.37;5.83;;;;;;;4.96;66.07;98805.40;1705036;83;21077;-68
2021/04/22 05:03:30;;;;;;;16.73;4.58;;;;;;;4.82;66.04;98805.09;1703234;83;21042;-69
2021/04/22 05:05:57;;;;;;;17.32;4.83;;;;;;;4.70;66.22;98796.91;1699878;83;21169;-70
2021/04/22 05:08:24;;;;;;;17.12;3.85;;;;;;;4.58;66.29;98812.86;1701560;83;21239;-68
2021/04/22 05:10:51;;;;;;;38.23;5.72;;;;;;;4.51;66.36;98802.80;1701069;83;21262;-67
2021/04/22 05:13:18;;;;;;;16.32;3.75;;;;;;;4.43;66.36;98792.77;1703126;82;21006;-68
2021/04/22 05:15:45;;;;;;;20.77;4.15;;;;;;;4.39;66.47;98806.69;1701292;83;21221;-67
2021/04/22 05:18:12;;;;;;;40.40;5.15;;;;;;;4.36;66.58;98808.09;1705678;82;21178;-67
2021/04/22 05:20:39;;;;;;;18.05;5.03;;;;;;;4.39;66.70;98807.98;1693748;83;22220;-68
2021/04/22 05:23:06;;;;;;;37.48;5.08;;;;;;;4.42;66.71;98791.06;1710556;82;21681;-69
2021/04/22 05:25:33;;;;;;;39.60;5.60;;;;;;;4.47;66.69;98807.25;1716499;82;21611;-70
2021/04/22 05:28:00;;;;;;;24.63;5.58;;;;;;;4.54;66.74;98797.09;1721452;82;21812;-68
2021/04/22 05:30:30;;;;;;;15.58;4.00;;;;;;;4.74;66.95;98805.84;1708857;82;21271;-70
2021/04/22 05:33:00;;;;;;;35.58;5.10;;;;;;;4.97;66.80;98812.25;1733741;81;21235;-69
2021/04/22 05:35:27;;;;;;;54.85;6.80;;;;;;;5.36;66.83;98806.39;1732949;80;21268;-69
2021/04/22 05:37:54;;;;;;;23.92;4.78;;;;;;;5.47;66.36;98804.21;1734620;80;21161;-69
2021/04/22 05:40:21;;;;;;;31.73;5.17;;;;;;;5.56;66.55;98798.64;1730802;81;21163;-69
2021/04/22 05:42:49;;;;;;;30.32;4.92;;;;;;;5.87;66.73;98791.33;1705327;82;21354;-70
2021/04/22 05:45:17;;;;;;;15.85;3.12;;;;;;;6.32;66.63;98800.17;1733809;81;21242;-69
2021/04/22 05:47:46;;;;;;;27.62;4.50;;;;;;;6.52;65.96;98797.14;1732550;81;21266;-69
2021/04/22 05:50:15;;;;;;;26.52;5.25;;;;;;;6.37;65.92;98798.22;1730263;81;21176;-69
2021/04/22 05:52:43;;;;;;;20.72;4.58;;;;;;;6.18;65.99;98799.94;1730890;81;21141;-69
2021/04/22 05:55:12;;;;;;;37.05;4.45;;;;;;;5.98;65.97;98789.98;1729710;81;21426;-69
2021/04/22 05:57:39;;;;;;;21.80;3.65;;;;;;;5.81;66.01;98789.84;1731771;81;21161;-69
2021/04/22 06:00:10;;;;;;;27.45;4.37;;;;;;;5.58;66.04;98799.43;1735403;81;22162;-69
2021/04/22 06:02:38;;;;;;;28.77;5.25;;;;;;;5.55;66.42;98804.73;1731142;81;21296;-69
2021/04/22 06:05:07;;;;;;;16.35;4.20;;;;;;;5.63;66.29;98800.97;1727357;81;21108;-69
2021/04/22 06:07:34;;;;;;;23.95;4.72;;;;;;;5.63;66.36;98790.61;1728809;81;21195;-69
2021/04/22 06:10:01;;;;;;;27.93;4.60;;;;;;;5.63;66.19;98789.31;1736678;81;21219;-70
2021/04/22 06:12:28;;;;;;;17.90;4.28;;;;;;;5.61;66.26;98782.47;1737911;81;21273;-69
2021/04/22 06:14:55;;;;;;;21.95;4.58;;;;;;;5.76;66.63;98795.67;1732837;81;21201;-69
2021/04/22 06:17:22;;;;;;;59.98;6.60;;;;;;;6.02;66.44;98791.55;1737981;81;21624;-69
2021/04/22 06:19:49;;;;;;;32.65;5.15;;;;;;;6.17;66.20;98787.91;1729542;81;21157;-69
2021/04/22 06:22:16;;;;;;;21.52;5.17;;;;;;;6.28;66.30;98786.97;1737625;81;21202;-69
2021/04/22 06:24:43;;;;;;;40.78;6.22;;;;;;;6.35;66.25;98796.14;1731816;81;22460;-70
2021/04/22 06:27:12;;;;;;;25.50;4.35;;;;;;;6.48;66.17;98780.88;1733429;81;21034;-69
2021/04/22 06:29:39;;;;;;;22.00;4.55;;;;;;;6.61;66.19;98781.14;1733814;81;21215;-69
2021/04/22 06:32:11;;;;;;;12.20;3.45;;;;;;;6.83;66.14;98777.94;1732317;81;21211;-69
2021/04/22 06:34:38;;;;;;;30.65;4.75;;;;;;;6.85;65.62;98780.01;1736792;81;21198;-68
2021/04/22 06:37:05;;;;;;;24.43;4.05;;;;;;;6.70;65.67;98796.30;1731983;81;21283;-69
2021/04/22 06:39:32;;;;;;;24.25;4.75;;;;;;;6.54;65.69;98778.47;1731029;81;21610;-69
2021/04/22 06:41:59;;;;;;;27.82;5.15;;;;;;;6.62;66.12;98764.69;1727147;81;21286;-71
2021/04/22 06:44:26;;;;;;;;;;;;;;;6.81;65.88;98782.84;1736784;81;21223;-70
2021/04/22 06:46:53;;;;;;;27.73;4.15;;;;;;;6.90;65.59;98772.85;1733980;81;20256;-70
2021/04/22 06:49:21;;;;;;;68.72;7.22;;;;;;;6.92;65.55;98773.63;1735291;81;21219;-70
2021/04/22 06:51:48;;;;;;;21.65;5.12;;;;;;;6.91;65.50;98762.84;1703828;81;21190;-70
2021/04/22 06:54:15;;;;;;;34.67;4.62;;;;;;;7.03;65.61;98756.69;1732593;81;21171;-68
2021/04/22 06:56:42;;;;;;;14.18;3.50;;;;;;;7.04;65.06;98759.22;1706947;81;21316;-69
2021/04/22 06:59:09;;;;;;;15.53;4.20;;;;;;;6.89;65.17;98782.00;1732239;81;21185;-69
2021/04/22 07:01:36;;;;;;;13.18;3.55;;;;;;;6.62;64.94;98773.77;1707694;83;21218;-69
2021/04/22 07:04:04;;;;;;;15.90;3.20;;;;;;;6.33;65.24;98773.35;1709339;81;21579;-69
2021/04/22 07:06:31;;;;;;;14.73;3.67;;;;;;;6.54;66.12;98771.98;1712667;81;21606;-68
2021/04/22 07:08:58;;;;;;;16.02;2.87;;;;;;;7.17;66.47;98765.97;1705924;81;21037;-69
2021/04/22 07:11:25;;;;;;;10.48;3.15;;;;;;;8.00;66.12;98761.80;1709296;81;21167;-69
2021/04/22 07:13:53;;;;;;;11.20;3.10;;;;;;;8.43;65.32;98755.64;1716239;81;21242;-69
2021/04/22 07:16:20;;;;;;;17.87;2.67;;;;;;;8.53;64.28;98758.60;1708748;83;21155;-69
2021/04/22 07:18:47;;;;;;;8.53;2.67;;;;;;;8.30;64.21;98751.08;1708449;81;21196;-69
2021/04/22 07:21:14;;;;;;;10.93;2.77;;;;;;;8.01;64.11;98751.77;1684371;83;21225;-68
2021/04/22 07:23:41;;;;;;;10.63;2.72;;;;;;;7.58;64.04;98766.96;1702959;83;21218;-69
2021/04/22 07:26:08;;;;;;;27.82;5.08;;;;;;;7.28;64.34;98744.22;1703331;82;21447;-69
2021/04/22 07:28:35;;;;;;;16.48;2.85;;;;;;;7.18;64.38;98753.36;1700794;83;21920;-69
2021/04/22 07:31:03;;;;;;;11.35;2.40;;;;;;;6.98;64.16;98754.80;1702256;83;21151;-68
2021/04/22 07:33:32;;;;;;;14.10;3.25;;;;;;;6.70;64.02;98775.09;1737828;81;21215;-69
2021/04/22 07:36:02;;;;;;;15.65;2.90;;;;;;;6.31;63.91;98771.27;1733698;81;21084;-67
2021/04/22 07:38:31;;;;;;;12.13;2.58;;;;;;;5.94;63.43;98789.75;1704354;83;21211;-69
2021/04/22 07:40:59;;;;;;;14.45;2.58;;;;;;;5.64;63.96;98792.31;1703657;82;21280;-67
2021/04/22 07:43:26;;;;;;;8.85;2.00;;;;;;;5.52;64.30;98793.22;1712709;82;21165;-70
2021/04/22 07:45:53;;;;;;;9.53;2.58;;;;;;;5.51;64.39;98810.93;1708193;82;21148;-70
2021/04/22 07:48:20;;;;;;;8.65;2.27;;;;;;;5.41;64.36;98817.41;1707343;82;21152;-69
2021/04/22 07:50:47;;;;;;;5.15;2.10;;;;;;;5.39;64.59;98822.64;1708665;83;21423;-69
2021/04/22 07:53:14;;;;;;;9.60;1.40;;;;;;;5.26;64.53;98825.78;1711081;83;28420;-68
2021/04/22 07:55:50;;;;;;;5.45;1.40;;;;;;;5.22;64.58;98825.52;1711099;82;21068;-69
2021/04/22 07:58:18;;;;;;;7.20;1.70;;;;;;;5.33;65.14;98827.23;1711030;82;21856;-70
2021/04/22 08:00:48;;;;;;;7.55;1.70;;;;;;;5.43;65.00;98835.45;1704758;82;21215;-70
2021/04/22 08:03:18;;;;;;;7.75;1.95;;;;;;;5.58;65.09;98843.45;1707232;82;21283;-69
2021/04/22 08:05:49;;;;;;;6.35;1.87;;;;;;;5.85;65.19;98838.02;1707904;82;21334;-70
2021/04/22 08:08:16;;;;;;;10.30;1.90;;;;;;;5.98;65.07;98835.34;1709676;83;21691;-67
2021/04/22 08:10:47;;;;;;;6.97;1.70;;;;;;;6.12;65.22;98852.89;1708959;82;21296;-69
2021/04/22 08:13:18;;;;;;;14.75;2.33;;;;;;;6.27;65.20;98842.30;1707122;83;21184;-70
2021/04/22 08:15:48;;;;;;;7.25;1.45;;;;;;;6.51;65.66;98846.88;1707007;82;21218;-70
2021/04/22 08:18:16;;;;;;;12.03;2.45;;;;;;;6.83;65.68;98836.31;1709817;82;21306;-70
2021/04/22 08:20:44;;;;;;;5.58;1.90;;;;;;;7.22;65.62;98850.95;1715432;83;21241;-71
2021/04/22 08:23:12;;;;;;;4.70;1.77;;;;;;;7.68;65.71;98841.41;1715076;82;21278;-70
2021/04/22 08:25:47;;;;;;;6.72;1.50;;;;;;;7.94;64.93;98849.20;1711376;82;21188;-70
2021/04/22 08:28:18;;;;;;;9.43;1.67;;;;;;;7.53;64.00;98855.50;1687477;83;22057;-71
2021/04/22 08:30:53;;;;;;;8.30;1.87;;;;;;;6.76;64.00;98863.47;1707232;82;21272;-70
2021/04/22 08:36:12;;;;;;;8.18;1.65;;;;;;;5.60;64.88;98872.73;1700487;83;21145;-68
2021/04/22 08:38:39;;;;;;;;;;;;;;;5.36;65.56;98876.29;1704357;82;21168;-67
2021/04/22 08:41:07;;;;;;;8.93;2.20;;;;;;;5.30;65.69;98886.43;1701851;83;22398;-67
2021/04/22 08:43:36;;;;;;;7.60;1.87;;;;;;;5.43;65.76;98871.23;1699303;82;21289;-68
2021/04/22 08:46:05;;;;;;;5.08;1.42;;;;;;;5.73;65.84;98885.16;1698755;82;21254;-68
2021/04/22 08:48:37;;;;;;;8.20;1.30;;;;;;;5.87;65.02;98856.94;1703719;82;21188;-69
2021/04/22 08:51:06;;;;;;;5.40;1.62;;;;;;;5.99;65.15;98872.02;1679247;83;21163;-70
2021/04/22 08:53:38;;;;;;;5.05;1.10;;;;;;;6.21;65.16;98865.91;1685820;83;21216;-70
2021/04/22 08:56:07;;;;;;;3.80;1.17;;;;;;;6.14;64.17;98900.79;1692282;84;21251;-70
2021/04/22 08:58:34;;;;;;;3.58;1.35;;;;;;;5.75;64.28;98901.04;1648302;85;21214;-69
2021/04/22 09:01:11;;;;;;;2.98;1.65;;;;;;;5.36;64.48;98915.12;1700307;84;21203;-70
2021/04/22 09:03:40;;;;;;;8.05;1.30;;;;;;;5.11;65.12;98913.46;1700287;82;21182;-68
2021/04/22 09:06:08;;;;;;;3.47;1.20;;;;;;;5.24;65.49;98911.27;1701371;82;21282;-69
2021/04/22 09:08:44;;;;;;;2.22;0.80;;;;;;;5.24;65.14;98915.60;1698379;83;21835;-70
2021/04/22 09:11:15;;;;;;;8.10;1.25;;;;;;;4.90;64.85;98927.19;1691662;82;21112;-71
2021/04/22 09:13:43;;;;;;;5.47;1.30;;;;;;;4.56;65.63;98945.67;1696737;82;21619;-70
2021/04/22 09:16:16;;;;;;;;;;;;;;;4.41;65.66;98941.89;1699237;84;21201;-70
2021/04/22 09:18:56;;;;;;;3.10;1.05;;;;;;;4.26;65.86;98948.44;1696187;82;21358;-70
2021/04/22 09:21:28;;;;;;;1.37;0.75;;;;;;;4.22;66.43;98958.01;1697321;82;21809;-68
2021/04/22 09:24:12;;;;;;;0.88;0.68;;;;;;;3.89;66.54;98965.58;1698670;82;21176;-70
2021/04/22 09:26:52;;;;;;;3.70;1.22;;;;;;;3.72;68.32;98963.08;1695638;82;21336;-70
2021/04/22 09:29:42;;;;;;;4.30;1.07;;;;;;;3.85;67.29;98952.38;1695204;82;21207;-71
2021/04/22 09:32:23;;;;;;;3.20;0.70;;;;;;;4.11;67.14;98951.06;1696074;82;22169;-71
2021/04/22 09:35:08;;;;;;;2.00;0.85;;;;;;;4.25;67.25;98959.19;1685140;83;21089;-71
2021/04/22 09:40:38;;;;;;;1.67;1.02;;;;;;;4.33;66.99;98956.81;1759289;79;22873;-70
2021/04/22 09:43:12;;;;;;;3.10;0.80;;;;;;;4.28;66.96;98966.45;1739140;80;21033;-70
2021/04/22 09:45:43;;;;;;;3.05;1.15;;;;;;;4.16;66.92;98973.72;1736298;81;21602;-70
2021/04/22 09:48:19;;;;;;;3.05;1.05;;;;;;;4.13;67.25;98981.58;1740646;81;21205;-70
2021/04/22 09:50:47;;;;;;;6.37;1.00;;;;;;;4.11;67.01;98975.61;1733451;80;21665;-70
2021/04/22 09:53:17;;;;;;;4.58;1.40;;;;;;;4.15;67.03;98987.55;1735876;81;21051;-69
2021/04/22 09:55:46;;;;;;;4.70;1.22;;;;;;;4.14;67.03;98979.37;1730590;81;20996;-71
2021/04/22 09:58:28;;;;;;;4.87;1.27;;;;;;;4.21;67.09;98986.05;1731699;81;21179;-70
2021/04/22 10:00:56;;;;;;;1.45;0.70;;;;;;;4.28;67.03;98985.84;1737573;81;21119;-70
2021/04/22 10:03:23;;;;;;;4.55;1.10;;;;;;;4.22;66.62;98994.19;1711301;81;21001;-69
2021/04/22 10:06:02;;;;;;;3.45;1.10;;;;;;;4.20;67.08;98993.41;1727977;81;21924;-71
2021/04/22 10:08:30;;;;;;;2.52;0.75;;;;;;;4.33;67.01;98990.41;1733074;81;21648;-70
2021/04/22 10:11:06;;;;;;;2.60;1.22;;;;;;;4.35;66.75;98991.21;1739318;80;21187;-72
2021/04/22 10:13:49;;;;;;;5.65;1.40;;;;;;;4.36;66.96;98996.31;1740283;80;21642;-70
2021/04/22 10:16:16;;;;;;;3.15;1.22;;;;;;;4.55;67.46;98992.66;1737749;80;21279;-71
2021/04/22 10:18:46;;;;;;;1.92;1.32;;;;;;;4.76;67.20;98996.26;1736898;81;21177;-69
2021/04/22 10:21:14;;;;;;;3.22;1.70;;;;;;;4.83;67.03;99008.52;1736422;80;21650;-70
2021/04/22 10:23:43;;;;;;;7.08;0.98;;;;;;;4.77;66.81;99013.91;1733829;81;21326;-71
2021/04/22 10:26:21;;;;;;;1.65;1.02;;;;;;;4.78;66.95;99011.70;1732596;81;21204;-71
2021/04/22 10:28:49;;;;;;;4.00;1.35;;;;;;;4.92;67.09;99009.48;1739173;80;21230;-72
2021/04/22 10:31:17;;;;;;;4.42;1.07;;;;;;;5.07;67.06;99008.94;1734980;81;21737;-72
2021/04/22 10:33:45;;;;;;;4.42;1.40;;;;;;;5.10;66.94;99017.05;1733835;81;21178;-70
2021/04/22 10:36:13;;;;;;;1.90;0.80;;;;;;;5.08;67.04;99017.55;1735612;80;21149;-73
2021/04/22 10:38:41;;;;;;;3.15;1.30;;;;;;;5.23;67.31;99022.60;1739598;80;21271;-70
2021/04/22 10:41:08;;;;;;;3.92;1.15;;;;;;;5.38;67.26;99009.11;1739831;81;21167;-71
2021/04/22 10:43:37;;;;;;;4.50;1.47;;;;;;;5.46;67.08;99012.68;1733339;81;21142;-71
2021/04/22 10:46:04;;;;;;;5.90;1.20;;;;;;;5.44;67.04;99030.88;1737248;80;21441;-72
2021/04/22 10:48:32;;;;;;;3.67;1.35;;;;;;;5.32;66.97;99035.20;1736836;81;21152;-71
2021/04/22 10:51:00;;;;;;;2.02;1.05;;;;;;;5.13;66.82;99024.23;1735954;80;21429;-72
2021/04/22 10:53:28;;;;;;;4.10;1.00;;;;;;;4.87;66.63;99037.24;1741455;81;21630;-69
2021/04/22 10:55:56;;;;;;;3.05;0.90;;;;;;;4.45;66.67;99057.19;1739013;80;21442;-68
2021/04/22 10:58:28;;;;;;;3.33;1.07;;;;;;;3.80;66.94;99061.81;1743061;81;21194;-71
2021/04/22 11:01:06;;;;;;;3.00;0.90;;;;;;;3.26;67.62;99074.15;1732782;81;21151;-70
2021/04/22 11:03:39;;;;;;;2.85;1.10;;;;;;;2.94;68.78;99081.91;1694738;81;21074;-70
2021/04/22 11:06:19;;;;;;;1.65;0.80;;;;;;;2.72;68.90;99077.75;1693391;84;21241;-70
2021/04/22 11:08:54;;;;;;;2.70;0.90;;;;;;;2.72;68.76;99090.63;1729886;81;21748;-70
2021/04/22 11:11:29;;;;;;;1.12;0.70;;;;;;;2.77;69.01;99084.47;1737053;80;22325;-71
2021/04/22 11:14:15;;;;;;;1.92;0.98;;;;;;;2.86;68.97;99077.81;1737592;80;21207;-70
2021/04/22 11:16:54;;;;;;;4.42;1.12;;;;;;;2.96;69.00;99084.01;1735543;80;21175;-70
2021/04/22 11:19:25;;;;;;;4.03;0.85;;;;;;;3.03;69.15;99089.42;1739952;80;21203;-70
2021/04/22 11:22:03;;;;;;;4.08;1.10;;;;;;;3.17;69.27;99096.34;1738381;81;20989;-70
2021/04/22 11:24:39;;;;;;;6.55;1.40;;;;;;;3.34;69.10;99094.13;1733161;81;21012;-70
2021/04/22 11:27:13;;;;;;;3.20;1.42;;;;;;;3.48;69.22;99096.78;1740873;80;21414;-69
2021/04/22 11:29:53;;;;;;;4.08;1.25;;;;;;;3.70;69.37;99097.02;1745293;81;21700;-72
2021/04/22 11:32:34;;;;;;;3.85;1.37;;;;;;;3.87;69.29;99097.81;1732922;81;21183;-69
2021/04/22 11:35:15;;;;;;;3.20;1.30;;;;;;;3.95;69.14;99103.55;1739603;81;21650;-70
2021/04/22 11:37:46;;;;;;;3.42;2.00;;;;;;;3.90;68.97;99113.20;1737457;81;21252;-70
2021/04/22 11:40:25;;;;;;;3.05;1.57;;;;;;;3.85;69.17;99112.49;1746711;80;22224;-69
2021/04/22 11:43:03;;;;;;;3.12;1.50;;;;;;;3.80;69.48;99115.20;1796464;77;22802;-70
2021/04/22 11:45:33;;;;;;;3.27;1.10;;;;;;;3.53;69.06;99128.48;1775373;80;21080;-70
2021/04/22 11:48:11;;;;;;;1.85;1.00;;;;;;;3.39;69.23;99139.59;1769964;80;21404;-70
2021/04/22 11:50:54;;;;;;;2.27;1.15;;;;;;;3.34;69.53;99130.27;1766105;79;21109;-70
2021/04/22 11:55:47;;;;;;;2.08;0.88;;;;;;;3.34;69.78;99127.68;1797864;78;22464;-68
2021/04/22 11:58:18;;;;;;;2.08;0.90;;;;;;;3.19;69.70;99135.81;1769956;79;21604;-70